Погода Кривознакина неделю

Минская область, Белоруссия

23 - 29 мая
  • 23мая
    Сегодня
    +13°
    +24°
    Облачно с прояснениями
    ВремяПогодаТемператураВлажностьДавлениеВетер, м/сВероятность осадков
    00:00Ясно и безоблачно+15°C93 %747 мм3.4 м/с3 %
    03:00Ясно и безоблачно+14°C94 %747 мм3.7 м/с2 %
    06:00Ясно и безоблачно+14°C95 %748 мм4.1 м/с2 %
    09:00Небольшая облачность+18°C86 %749 мм3.6 м/с7 %
    12:00Небольшая облачность, ливень+22°C70 %750 мм5.0 м/с28 %
    15:00Облачно с прояснениями+22°C64 %749 мм4.5 м/с33 %
    18:00Облачно с прояснениями, небольшой дождь+22°C69 %750 мм3.8 м/с52 %
    21:00Практически безоблачно+20°C72 %750 мм3.4 м/с5 %
  • 24мая
    Пятница
    +12°
    +24°
    Ясно и безоблачно
    ВремяПогодаТемператураВлажностьДавлениеВетер, м/сВероятность осадков
    00:00Облачно с прояснениями+18°C70 %751 мм4.7 м/с2 %
    03:00Облачно с прояснениями+16°C64 %752 мм4.8 м/с2 %
    06:00Облачно с прояснениями+14°C67 %753 мм4.6 м/с2 %
    09:00Ясно и безоблачно+17°C62 %753 мм4.1 м/с2 %
    12:00Ясно и безоблачно+22°C53 %754 мм4.6 м/с2 %
    15:00Ясно и безоблачно+23°C48 %753 мм4.5 м/с2 %
    18:00Ясно и безоблачно+23°C49 %753 мм4.2 м/с2 %
    21:00Ясно и безоблачно+19°C61 %752 мм3.1 м/с2 %
  • 25мая
    Суббота
    +10°
    +25°
    Практически безоблачно
    ВремяПогодаТемператураВлажностьДавлениеВетер, м/сВероятность осадков
    00:00Ясно и безоблачно+16°C67 %753 мм3.9 м/с2 %
    03:00Ясно и безоблачно+13°C73 %752 мм3.2 м/с2 %
    06:00Ясно и безоблачно+13°C75 %752 мм3.5 м/с2 %
    09:00Ясно и безоблачно+17°C67 %752 мм3.5 м/с2 %
    12:00Ясно и безоблачно+22°C55 %753 мм4.1 м/с2 %
    15:00Практически безоблачно+24°C45 %752 мм3.9 м/с4 %
    18:00Облачно с прояснениями+24°C44 %751 мм3.3 м/с11 %
    21:00Практически безоблачно+19°C70 %751 мм1.9 м/с4 %
  • 26мая
    Воскресенье
    +12°
    +26°
    Ясно и безоблачно
    ВремяПогодаТемператураВлажностьДавлениеВетер, м/сВероятность осадков
    00:00Ясно и безоблачно+16°C70 %751 мм2.8 м/с2 %
    03:00Ясно и безоблачно+13°C67 %751 мм2.4 м/с3 %
    06:00Ясно и безоблачно+12°C72 %751 мм1.8 м/с6 %
    09:00Ясно и безоблачно+19°C60 %752 мм2.3 м/с7 %
    12:00Ясно и безоблачно+22°C43 %752 мм2.9 м/с2 %
    15:00Ясно и безоблачно+24°C39 %752 мм2.0 м/с3 %
    18:00Ясно и безоблачно+25°C40 %751 мм1.9 м/с3 %
    21:00Ясно и безоблачно+20°C62 %751 мм1.6 м/с2 %
  • 27мая
    Понедельник
    +14°
    +26°
    Практически безоблачно
    ВремяПогодаТемператураВлажностьДавлениеВетер, м/сВероятность осадков
    00:00Практически безоблачно+16°C72 %751 мм2.3 м/с2 %
    03:00Ясно и безоблачно+13°C80 %752 мм2.3 м/с2 %
    06:00Ясно и безоблачно+14°C78 %752 мм2.0 м/с2 %
    09:00Ясно и безоблачно+20°C60 %752 мм1.6 м/с2 %
    12:00Практически безоблачно+24°C41 %752 мм2.7 м/с10 %
    15:00Практически безоблачно+25°C39 %752 мм2.4 м/с18 %
    18:00Практически безоблачно+26°C41 %751 мм2.3 м/с27 %
    21:00Практически безоблачно+20°C66 %751 мм2.0 м/с10 %
Мы используем cookies
Соглашаюсь